sensor_id;sensor_type;location;lat;lon;timestamp;pressure;altitude;pressure_sealevel;temperature;humidity
24154;BME280;12312;53.362;-1.518;2023-03-03T00:00:13;100527.53;;;3.53;92.51
24154;BME280;12312;53.362;-1.518;2023-03-03T00:02:38;100528.38;;;3.55;92.21
24154;BME280;12312;53.362;-1.518;2023-03-03T00:05:04;100537.31;;;3.46;91.47
24154;BME280;12312;53.362;-1.518;2023-03-03T00:07:30;100533.28;;;3.32;91.56
24154;BME280;12312;53.362;-1.518;2023-03-03T00:09:56;100534.06;;;3.37;92.19
24154;BME280;12312;53.362;-1.518;2023-03-03T00:12:29;100533.81;;;3.47;91.84
24154;BME280;12312;53.362;-1.518;2023-03-03T00:14:55;100550.56;;;3.42;92.28
24154;BME280;12312;53.362;-1.518;2023-03-03T00:17:24;100546.50;;;3.29;92.42
24154;BME280;12312;53.362;-1.518;2023-03-03T00:19:50;100545.59;;;3.30;92.64
24154;BME280;12312;53.362;-1.518;2023-03-03T00:22:42;100550.72;;;3.36;92.96
24154;BME280;12312;53.362;-1.518;2023-03-03T00:25:29;100545.53;;;3.33;92.48
24154;BME280;12312;53.362;-1.518;2023-03-03T00:27:58;100547.63;;;3.19;94.14
24154;BME280;12312;53.362;-1.518;2023-03-03T00:30:26;100545.75;;;3.22;94.90
24154;BME280;12312;53.362;-1.518;2023-03-03T00:32:55;100549.00;;;3.35;94.71
24154;BME280;12312;53.362;-1.518;2023-03-03T00:35:30;100548.09;;;3.36;92.53
24154;BME280;12312;53.362;-1.518;2023-03-03T00:38:01;100545.66;;;3.27;92.92
24154;BME280;12312;53.362;-1.518;2023-03-03T00:40:35;100542.81;;;3.36;92.58
24154;BME280;12312;53.362;-1.518;2023-03-03T00:43:01;100539.69;;;3.20;92.26
24154;BME280;12312;53.362;-1.518;2023-03-03T00:51:29;100543.41;;;3.10;93.09
24154;BME280;12312;53.362;-1.518;2023-03-03T00:53:56;100558.19;;;3.16;92.99
24154;BME280;12312;53.362;-1.518;2023-03-03T00:56:22;100554.72;;;3.14;92.82
24154;BME280;12312;53.362;-1.518;2023-03-03T00:58:48;100547.84;;;3.07;92.79
24154;BME280;12312;53.362;-1.518;2023-03-03T01:01:15;100557.88;;;2.90;93.07
24154;BME280;12312;53.362;-1.518;2023-03-03T01:03:41;100566.50;;;2.95;93.52
24154;BME280;12312;53.362;-1.518;2023-03-03T01:06:08;100562.16;;;2.94;93.31
24154;BME280;12312;53.362;-1.518;2023-03-03T01:08:35;100563.06;;;2.93;93.05
24154;BME280;12312;53.362;-1.518;2023-03-03T01:11:22;100563.88;;;2.95;93.54
24154;BME280;12312;53.362;-1.518;2023-03-03T01:13:49;100563.81;;;2.98;93.39
24154;BME280;12312;53.362;-1.518;2023-03-03T01:16:16;100564.53;;;3.06;93.13
24154;BME280;12312;53.362;-1.518;2023-03-03T01:18:41;100575.13;;;3.01;92.89
24154;BME280;12312;53.362;-1.518;2023-03-03T01:21:08;100567.16;;;3.06;93.60
24154;BME280;12312;53.362;-1.518;2023-03-03T01:23:34;100564.97;;;3.26;93.21
24154;BME280;12312;53.362;-1.518;2023-03-03T01:26:00;100572.09;;;3.21;91.31
24154;BME280;12312;53.362;-1.518;2023-03-03T01:28:25;100570.50;;;3.14;92.26
24154;BME280;12312;53.362;-1.518;2023-03-03T01:30:51;100577.81;;;3.00;92.49
24154;BME280;12312;53.362;-1.518;2023-03-03T01:33:17;100572.91;;;2.82;91.92
24154;BME280;12312;53.362;-1.518;2023-03-03T01:35:44;100573.69;;;2.87;92.80
24154;BME280;12312;53.362;-1.518;2023-03-03T01:38:10;100567.59;;;2.85;92.62
24154;BME280;12312;53.362;-1.518;2023-03-03T01:40:55;100566.75;;;2.83;92.88
24154;BME280;12312;53.362;-1.518;2023-03-03T01:43:21;100573.81;;;2.81;93.04
24154;BME280;12312;53.362;-1.518;2023-03-03T01:51:14;100566.06;;;2.75;93.49
24154;BME280;12312;53.362;-1.518;2023-03-03T01:53:50;100571.19;;;2.81;92.31
24154;BME280;12312;53.362;-1.518;2023-03-03T01:56:16;100575.72;;;2.73;92.42
24154;BME280;12312;53.362;-1.518;2023-03-03T01:58:48;100564.19;;;2.80;91.99
24154;BME280;12312;53.362;-1.518;2023-03-03T02:01:19;100568.47;;;2.85;92.63
24154;BME280;12312;53.362;-1.518;2023-03-03T02:03:46;100571.03;;;2.88;92.65
24154;BME280;12312;53.362;-1.518;2023-03-03T02:06:17;100569.13;;;2.95;92.82
24154;BME280;12312;53.362;-1.518;2023-03-03T02:11:14;100570.19;;;2.86;92.56
24154;BME280;12312;53.362;-1.518;2023-03-03T02:13:40;100575.47;;;2.85;93.21
24154;BME280;12312;53.362;-1.518;2023-03-03T02:16:06;100573.88;;;2.78;94.27
24154;BME280;12312;53.362;-1.518;2023-03-03T02:18:32;100572.34;;;2.66;93.28
24154;BME280;12312;53.362;-1.518;2023-03-03T02:21:15;100571.13;;;2.84;92.87
24154;BME280;12312;53.362;-1.518;2023-03-03T02:26:34;100570.63;;;2.64;94.26
24154;BME280;12312;53.362;-1.518;2023-03-03T02:29:01;100564.78;;;2.50;94.44
24154;BME280;12312;53.362;-1.518;2023-03-03T02:31:28;100562.69;;;2.67;94.67
24154;BME280;12312;53.362;-1.518;2023-03-03T02:33:55;100559.09;;;2.71;95.35
24154;BME280;12312;53.362;-1.518;2023-03-03T02:36:31;100555.50;;;2.76;97.93
24154;BME280;12312;53.362;-1.518;2023-03-03T02:39:11;100555.66;;;2.69;95.75
24154;BME280;12312;53.362;-1.518;2023-03-03T02:44:16;100558.34;;;2.66;95.02
24154;BME280;12312;53.362;-1.518;2023-03-03T02:46:44;100559.03;;;2.74;94.06
24154;BME280;12312;53.362;-1.518;2023-03-03T02:49:11;100561.81;;;2.66;94.83
24154;BME280;12312;53.362;-1.518;2023-03-03T02:51:37;100566.28;;;2.63;94.71
24154;BME280;12312;53.362;-1.518;2023-03-03T02:54:05;100558.53;;;2.55;95.29
24154;BME280;12312;53.362;-1.518;2023-03-03T02:56:31;100557.56;;;2.61;95.14
24154;BME280;12312;53.362;-1.518;2023-03-03T02:58:57;100563.75;;;2.58;95.60
24154;BME280;12312;53.362;-1.518;2023-03-03T03:01:23;100561.97;;;2.59;95.04
24154;BME280;12312;53.362;-1.518;2023-03-03T03:03:48;100556.59;;;2.65;94.74
24154;BME280;12312;53.362;-1.518;2023-03-03T03:06:14;100561.09;;;2.60;94.71
24154;BME280;12312;53.362;-1.518;2023-03-03T03:08:39;100560.41;;;2.49;95.11
24154;BME280;12312;53.362;-1.518;2023-03-03T03:11:05;100547.97;;;2.60;95.75
24154;BME280;12312;53.362;-1.518;2023-03-03T03:13:31;100550.47;;;2.66;95.17
24154;BME280;12312;53.362;-1.518;2023-03-03T03:15:58;100544.47;;;2.58;95.49
24154;BME280;12312;53.362;-1.518;2023-03-03T03:18:24;100544.53;;;2.55;95.19
24154;BME280;12312;53.362;-1.518;2023-03-03T03:20:50;100545.38;;;2.57;95.06
24154;BME280;12312;53.362;-1.518;2023-03-03T03:23:16;100546.06;;;2.66;95.57
24154;BME280;12312;53.362;-1.518;2023-03-03T03:25:41;100544.44;;;2.61;95.61
24154;BME280;12312;53.362;-1.518;2023-03-03T03:28:14;100541.75;;;2.64;95.19
24154;BME280;12312;53.362;-1.518;2023-03-03T03:30:41;100542.75;;;2.57;95.61
24154;BME280;12312;53.362;-1.518;2023-03-03T03:33:08;100540.13;;;2.57;95.78
24154;BME280;12312;53.362;-1.518;2023-03-03T03:35:35;100548.88;;;2.56;95.87
24154;BME280;12312;53.362;-1.518;2023-03-03T03:38:01;100542.84;;;2.51;95.57
24154;BME280;12312;53.362;-1.518;2023-03-03T03:40:27;100539.22;;;2.58;95.29
24154;BME280;12312;53.362;-1.518;2023-03-03T03:42:53;100548.00;;;2.58;95.84
24154;BME280;12312;53.362;-1.518;2023-03-03T03:45:19;100546.13;;;2.63;95.79
24154;BME280;12312;53.362;-1.518;2023-03-03T03:47:45;100546.78;;;2.74;94.96
24154;BME280;12312;53.362;-1.518;2023-03-03T03:50:11;100551.09;;;2.77;94.71
24154;BME280;12312;53.362;-1.518;2023-03-03T03:52:36;100547.47;;;2.84;95.09
24154;BME280;12312;53.362;-1.518;2023-03-03T03:55:02;100546.75;;;2.76;94.78
24154;BME280;12312;53.362;-1.518;2023-03-03T03:57:28;100546.56;;;2.85;94.93
24154;BME280;12312;53.362;-1.518;2023-03-03T03:59:54;100550.03;;;2.87;94.54
24154;BME280;12312;53.362;-1.518;2023-03-03T04:02:19;100541.31;;;2.85;94.46
24154;BME280;12312;53.362;-1.518;2023-03-03T04:04:45;100539.94;;;2.67;95.40
24154;BME280;12312;53.362;-1.518;2023-03-03T04:07:10;100546.03;;;2.68;96.28
24154;BME280;12312;53.362;-1.518;2023-03-03T04:09:36;100539.78;;;2.75;95.92
24154;BME280;12312;53.362;-1.518;2023-03-03T04:12:01;100538.78;;;2.80;96.68
24154;BME280;12312;53.362;-1.518;2023-03-03T04:14:27;100534.41;;;2.81;96.13
24154;BME280;12312;53.362;-1.518;2023-03-03T04:16:52;100542.34;;;2.78;96.44
24154;BME280;12312;53.362;-1.518;2023-03-03T04:19:17;100540.59;;;2.77;95.60
24154;BME280;12312;53.362;-1.518;2023-03-03T04:21:43;100538.13;;;2.68;96.26
24154;BME280;12312;53.362;-1.518;2023-03-03T04:24:09;100536.56;;;2.59;96.85
24154;BME280;12312;53.362;-1.518;2023-03-03T04:26:34;100543.56;;;2.59;96.88
24154;BME280;12312;53.362;-1.518;2023-03-03T04:29:00;100545.38;;;2.58;96.95
24154;BME280;12312;53.362;-1.518;2023-03-03T04:31:26;100543.53;;;2.62;97.51
24154;BME280;12312;53.362;-1.518;2023-03-03T04:33:51;100543.56;;;2.59;97.46
24154;BME280;12312;53.362;-1.518;2023-03-03T04:36:18;100546.22;;;2.57;97.67
24154;BME280;12312;53.362;-1.518;2023-03-03T04:38:43;100547.34;;;2.46;97.51
24154;BME280;12312;53.362;-1.518;2023-03-03T04:41:09;100549.00;;;2.50;97.21
24154;BME280;12312;53.362;-1.518;2023-03-03T04:43:35;100542.88;;;2.49;97.61
24154;BME280;12312;53.362;-1.518;2023-03-03T04:46:00;100545.41;;;2.54;97.66
24154;BME280;12312;53.362;-1.518;2023-03-03T04:48:26;100547.34;;;2.46;97.82
24154;BME280;12312;53.362;-1.518;2023-03-03T04:50:52;100542.13;;;2.44;97.70
24154;BME280;12312;53.362;-1.518;2023-03-03T04:53:17;100542.16;;;2.43;97.89
24154;BME280;12312;53.362;-1.518;2023-03-03T04:55:43;100547.41;;;2.43;98.13
24154;BME280;12312;53.362;-1.518;2023-03-03T04:58:08;100541.97;;;2.52;97.93
24154;BME280;12312;53.362;-1.518;2023-03-03T05:00:35;100547.19;;;2.53;97.89
24154;BME280;12312;53.362;-1.518;2023-03-03T05:03:01;100551.66;;;2.48;98.45
24154;BME280;12312;53.362;-1.518;2023-03-03T05:05:27;100548.88;;;2.56;97.90
24154;BME280;12312;53.362;-1.518;2023-03-03T05:07:52;100548.88;;;2.56;97.59
24154;BME280;12312;53.362;-1.518;2023-03-03T05:10:18;100542.84;;;2.51;97.71
24154;BME280;12312;53.362;-1.518;2023-03-03T05:12:45;100547.22;;;2.52;97.82
24154;BME280;12312;53.362;-1.518;2023-03-03T05:15:10;100544.50;;;2.56;97.15
24154;BME280;12312;53.362;-1.518;2023-03-03T05:17:36;100549.19;;;2.41;97.17
24154;BME280;12312;53.362;-1.518;2023-03-03T05:20:03;100545.75;;;2.36;97.46
24154;BME280;12312;53.362;-1.518;2023-03-03T05:22:30;100537.75;;;2.42;97.74
24154;BME280;12312;53.362;-1.518;2023-03-03T05:24:55;100545.59;;;2.45;97.09
24154;BME280;12312;53.362;-1.518;2023-03-03T05:27:22;100538.63;;;2.44;96.49
24154;BME280;12312;53.362;-1.518;2023-03-03T05:29:47;100540.44;;;2.39;96.73
24154;BME280;12312;53.362;-1.518;2023-03-03T05:32:13;100550.91;;;2.42;96.40
24154;BME280;12312;53.362;-1.518;2023-03-03T05:34:38;100543.16;;;2.34;95.03
24154;BME280;12312;53.362;-1.518;2023-03-03T05:37:04;100533.41;;;2.41;94.68
24154;BME280;12312;53.362;-1.518;2023-03-03T05:39:31;100534.97;;;2.51;95.58
24154;BME280;12312;53.362;-1.518;2023-03-03T05:41:57;100543.69;;;2.53;94.64
24154;BME280;12312;53.362;-1.518;2023-03-03T05:44:25;100538.25;;;2.62;95.01
24154;BME280;12312;53.362;-1.518;2023-03-03T05:46:50;100544.31;;;2.67;94.47
24154;BME280;12312;53.362;-1.518;2023-03-03T05:49:16;100552.06;;;2.73;94.99
24154;BME280;12312;53.362;-1.518;2023-03-03T05:51:41;100538.97;;;2.71;94.90
24154;BME280;12312;53.362;-1.518;2023-03-03T05:54:07;100543.03;;;2.86;94.38
24154;BME280;12312;53.362;-1.518;2023-03-03T05:56:33;100539.78;;;2.75;93.44
24154;BME280;12312;53.362;-1.518;2023-03-03T05:58:58;100543.34;;;2.71;94.44
24154;BME280;12312;53.362;-1.518;2023-03-03T06:01:24;100545.28;;;2.63;95.21
24154;BME280;12312;53.362;-1.518;2023-03-03T06:03:49;100547.03;;;2.62;96.28
24154;BME280;12312;53.362;-1.518;2023-03-03T06:06:14;100542.78;;;2.54;96.90
24154;BME280;12312;53.362;-1.518;2023-03-03T06:08:41;100548.75;;;2.63;97.19
24154;BME280;12312;53.362;-1.518;2023-03-03T06:11:07;100541.00;;;2.56;98.02
24154;BME280;12312;53.362;-1.518;2023-03-03T06:13:32;100547.00;;;2.64;98.33
24154;BME280;12312;53.362;-1.518;2023-03-03T06:15:58;100543.53;;;2.62;99.47
24154;BME280;12312;53.362;-1.518;2023-03-03T06:18:23;100541.78;;;2.61;99.62
24154;BME280;12312;53.362;-1.518;2023-03-03T06:20:52;100541.84;;;2.58;100.00
24154;BME280;12312;53.362;-1.518;2023-03-03T06:23:18;100540.13;;;2.57;100.00
24154;BME280;12312;53.362;-1.518;2023-03-03T06:25:44;100545.53;;;2.48;100.00
24154;BME280;12312;53.362;-1.518;2023-03-03T06:28:10;100546.31;;;2.53;100.00
24154;BME280;12312;53.362;-1.518;2023-03-03T06:30:35;100542.78;;;2.54;100.00
24154;BME280;12312;53.362;-1.518;2023-03-03T06:33:01;100547.16;;;2.55;100.00
24154;BME280;12312;53.362;-1.518;2023-03-03T06:35:26;100555.47;;;2.78;100.00
24154;BME280;12312;53.362;-1.518;2023-03-03T06:37:52;100552.97;;;2.72;100.00
24154;BME280;12312;53.362;-1.518;2023-03-03T06:40:18;100555.03;;;2.56;100.00
24154;BME280;12312;53.362;-1.518;2023-03-03T06:42:43;100555.78;;;2.63;100.00
24154;BME280;12312;53.362;-1.518;2023-03-03T06:45:09;100554.31;;;2.47;100.00
24154;BME280;12312;53.362;-1.518;2023-03-03T06:47:35;100563.00;;;2.52;100.00
24154;BME280;12312;53.362;-1.518;2023-03-03T06:50:00;100563.97;;;2.45;100.00
24154;BME280;12312;53.362;-1.518;2023-03-03T06:52:26;100565.47;;;2.59;100.00
24154;BME280;12312;53.362;-1.518;2023-03-03T06:54:53;100568.22;;;2.53;100.00
24154;BME280;12312;53.362;-1.518;2023-03-03T06:57:31;100573.09;;;2.73;100.00
24154;BME280;12312;53.362;-1.518;2023-03-03T07:02:41;100577.16;;;2.42;100.00
24154;BME280;12312;53.362;-1.518;2023-03-03T07:05:13;100576.94;;;2.54;100.00
24154;BME280;12312;53.362;-1.518;2023-03-03T07:07:39;100578.81;;;2.49;100.00
24154;BME280;12312;53.362;-1.518;2023-03-03T07:10:15;100582.81;;;2.68;100.00
24154;BME280;12312;53.362;-1.518;2023-03-03T07:12:42;100583.78;;;2.64;100.00
24154;BME280;12312;53.362;-1.518;2023-03-03T07:15:33;100594.22;;;2.67;100.00
24154;BME280;12312;53.362;-1.518;2023-03-03T07:17:59;100589.09;;;2.61;100.00
24154;BME280;12312;53.362;-1.518;2023-03-03T07:20:32;100595.31;;;2.57;100.00
24154;BME280;12312;53.362;-1.518;2023-03-03T07:23:00;100589.25;;;2.52;100.00
24154;BME280;12312;53.362;-1.518;2023-03-03T07:25:32;100605.13;;;2.46;100.00
24154;BME280;12312;53.362;-1.518;2023-03-03T07:30:45;100608.09;;;2.26;100.00
24154;BME280;12312;53.362;-1.518;2023-03-03T07:33:22;100619.25;;;2.39;100.00
24154;BME280;12312;53.362;-1.518;2023-03-03T07:35:49;100603.69;;;2.27;100.00
24154;BME280;12312;53.362;-1.518;2023-03-03T07:40:48;100607.91;;;2.38;100.00
24154;BME280;12312;53.362;-1.518;2023-03-03T07:43:35;100610.59;;;2.34;100.00
24154;BME280;12312;53.362;-1.518;2023-03-03T07:48:41;100609.38;;;2.53;100.00
24154;BME280;12312;53.362;-1.518;2023-03-03T07:51:36;100617.31;;;2.50;100.00
24154;BME280;12312;53.362;-1.518;2023-03-03T07:56:50;100622.63;;;2.47;100.00
24154;BME280;12312;53.362;-1.518;2023-03-03T07:59:25;100610.50;;;2.40;100.00
24154;BME280;12312;53.362;-1.518;2023-03-03T08:01:56;100618.34;;;2.41;100.00
24154;BME280;12312;53.362;-1.518;2023-03-03T08:06:56;100617.31;;;2.50;100.00
24154;BME280;12312;53.362;-1.518;2023-03-03T08:09:37;100609.47;;;2.48;100.00
24154;BME280;12312;53.362;-1.518;2023-03-03T08:14:37;100616.88;;;2.74;100.00
24154;BME280;12312;53.362;-1.518;2023-03-03T08:17:34;100629.53;;;2.51;100.00
24154;BME280;12312;53.362;-1.518;2023-03-03T08:20:30;100624.22;;;2.57;100.00
24154;BME280;12312;53.362;-1.518;2023-03-03T08:22:54;100618.88;;;2.61;100.00
24154;BME280;12312;53.362;-1.518;2023-03-03T08:25:20;100636.44;;;2.58;100.00
24154;BME280;12312;53.362;-1.518;2023-03-03T08:27:45;100635.47;;;2.62;100.00
24154;BME280;12312;53.362;-1.518;2023-03-03T08:30:11;100637.31;;;2.58;100.00
24154;BME280;12312;53.362;-1.518;2023-03-03T08:32:36;100647.69;;;2.66;100.00
24154;BME280;12312;53.362;-1.518;2023-03-03T08:35:02;100646.03;;;2.59;100.00
24154;BME280;12312;53.362;-1.518;2023-03-03T08:37:27;100640.75;;;2.62;100.00
24154;BME280;12312;53.362;-1.518;2023-03-03T08:39:53;100647.81;;;2.60;100.00
24154;BME280;12312;53.362;-1.518;2023-03-03T08:42:18;100649.53;;;2.61;100.00
24154;BME280;12312;53.362;-1.518;2023-03-03T08:44:44;100650.44;;;2.60;100.00
24154;BME280;12312;53.362;-1.518;2023-03-03T08:47:09;100658.31;;;2.60;100.00
24154;BME280;12312;53.362;-1.518;2023-03-03T08:49:35;100651.34;;;2.56;100.00
24154;BME280;12312;53.362;-1.518;2023-03-03T08:52:00;100655.75;;;2.57;100.00
24154;BME280;12312;53.362;-1.518;2023-03-03T08:54:26;100653.75;;;2.68;100.00
24154;BME280;12312;53.362;-1.518;2023-03-03T08:56:51;100654.59;;;2.71;100.00
24154;BME280;12312;53.362;-1.518;2023-03-03T08:59:17;100657.28;;;2.67;100.00
24154;BME280;12312;53.362;-1.518;2023-03-03T09:01:43;100658.03;;;2.75;100.00
24154;BME280;12312;53.362;-1.518;2023-03-03T09:04:09;100659.75;;;2.76;100.00
24154;BME280;12312;53.362;-1.518;2023-03-03T09:06:35;100663.66;;;3.01;100.00
24154;BME280;12312;53.362;-1.518;2023-03-03T09:09:01;100663.69;;;2.99;100.00
24154;BME280;12312;53.362;-1.518;2023-03-03T09:11:28;100661.88;;;3.03;100.00
24154;BME280;12312;53.362;-1.518;2023-03-03T09:14:15;100658.69;;;2.86;100.00
24154;BME280;12312;53.362;-1.518;2023-03-03T09:21:45;100659.22;;;3.04;100.00
24154;BME280;12312;53.362;-1.518;2023-03-03T09:24:23;100660.34;;;2.91;100.00
24154;BME280;12312;53.362;-1.518;2023-03-03T09:26:49;100665.69;;;2.87;100.00
24154;BME280;12312;53.362;-1.518;2023-03-03T09:29:28;100663.78;;;2.95;100.00
24154;BME280;12312;53.362;-1.518;2023-03-03T09:31:59;100669.13;;;2.90;100.00
24154;BME280;12312;53.362;-1.518;2023-03-03T09:37:17;100672.81;;;2.80;100.00
24154;BME280;12312;53.362;-1.518;2023-03-03T09:39:45;100679.78;;;2.83;100.00
24154;BME280;12312;53.362;-1.518;2023-03-03T09:58:22;100691.75;;;2.99;100.00
24154;BME280;12312;53.362;-1.518;2023-03-03T10:06:11;100683.28;;;2.83;100.00
24154;BME280;12312;53.362;-1.518;2023-03-03T10:17:20;100690.59;;;3.13;100.00
24154;BME280;12312;53.362;-1.518;2023-03-03T10:20:16;100689.16;;;3.43;100.00
24154;BME280;12312;53.362;-1.518;2023-03-03T10:22:55;100686.44;;;3.46;99.49
24154;BME280;12312;53.362;-1.518;2023-03-03T10:28:22;100693.53;;;3.42;100.00
24154;BME280;12312;53.362;-1.518;2023-03-03T10:47:38;100688.03;;;3.94;98.59
24154;BME280;12312;53.362;-1.518;2023-03-03T10:52:38;100697.50;;;4.01;97.41
24154;BME280;12312;53.362;-1.518;2023-03-03T11:06:42;100692.59;;;4.24;97.23
24154;BME280;12312;53.362;-1.518;2023-03-03T11:09:20;100690.34;;;4.08;96.85
24154;BME280;12312;53.362;-1.518;2023-03-03T11:15:02;100693.25;;;3.96;97.88
24154;BME280;12312;53.362;-1.518;2023-03-03T11:20:39;100703.25;;;3.80;99.32
24154;BME280;12312;53.362;-1.518;2023-03-03T11:26:14;100705.56;;;4.33;100.00
24154;BME280;12312;53.362;-1.518;2023-03-03T11:28:55;100694.94;;;4.36;100.00
24154;BME280;12312;53.362;-1.518;2023-03-03T11:36:38;100707.66;;;3.81;99.36
24154;BME280;12312;53.362;-1.518;2023-03-03T11:39:10;100712.84;;;3.84;100.00
24154;BME280;12312;53.362;-1.518;2023-03-03T11:44:38;100702.56;;;4.10;100.00
24154;BME280;12312;53.362;-1.518;2023-03-03T11:47:23;100702.44;;;4.18;100.00
24154;BME280;12312;53.362;-1.518;2023-03-03T11:55:38;100703.13;;;4.24;100.00
24154;BME280;12312;53.362;-1.518;2023-03-03T11:58:23;100707.63;;;4.21;100.00
24154;BME280;12312;53.362;-1.518;2023-03-03T12:04:06;100720.69;;;3.87;100.00
24154;BME280;12312;53.362;-1.518;2023-03-03T12:12:41;100712.44;;;4.02;100.00
24154;BME280;12312;53.362;-1.518;2023-03-03T12:25:56;100720.75;;;4.22;100.00
24154;BME280;12312;53.362;-1.518;2023-03-03T12:28:27;100713.75;;;4.21;100.00
24154;BME280;12312;53.362;-1.518;2023-03-03T12:47:57;100681.03;;;4.66;93.87
24154;BME280;12312;53.362;-1.518;2023-03-03T13:08:55;100671.88;;;5.13;91.80
24154;BME280;12312;53.362;-1.518;2023-03-03T13:16:30;100671.16;;;5.06;93.54
24154;BME280;12312;53.362;-1.518;2023-03-03T13:19:25;100667.91;;;4.97;90.04
24154;BME280;12312;53.362;-1.518;2023-03-03T13:22:03;100662.81;;;4.89;91.07
24154;BME280;12312;53.362;-1.518;2023-03-03T13:24:50;100663.94;;;4.81;90.20
24154;BME280;12312;53.362;-1.518;2023-03-03T13:27:24;100666.22;;;4.94;90.07
24154;BME280;12312;53.362;-1.518;2023-03-03T13:30:03;100659.78;;;4.72;89.63
24154;BME280;12312;53.362;-1.518;2023-03-03T13:32:51;100655.06;;;4.83;88.61
24154;BME280;12312;53.362;-1.518;2023-03-03T13:37:54;100649.97;;;4.77;89.22
24154;BME280;12312;53.362;-1.518;2023-03-03T13:40:26;100648.84;;;4.87;90.82
24154;BME280;12312;53.362;-1.518;2023-03-03T13:42:58;100639.09;;;4.89;89.55
24154;BME280;12312;53.362;-1.518;2023-03-03T13:50:43;100645.22;;;5.53;98.68
24154;BME280;12312;53.362;-1.518;2023-03-03T13:59:18;100646.47;;;5.69;86.68
24154;BME280;12312;53.362;-1.518;2023-03-03T14:01:56;100639.97;;;5.82;82.92
24154;BME280;12312;53.362;-1.518;2023-03-03T14:04:35;100644.84;;;5.65;80.21
24154;BME280;12312;53.362;-1.518;2023-03-03T14:07:13;100644.53;;;5.46;81.06
24154;BME280;12312;53.362;-1.518;2023-03-03T14:09:55;100637.44;;;5.48;81.11
24154;BME280;12312;53.362;-1.518;2023-03-03T14:12:49;100644.00;;;5.33;81.98
24154;BME280;12312;53.362;-1.518;2023-03-03T14:15:37;100639.47;;;5.38;81.67
24154;BME280;12312;53.362;-1.518;2023-03-03T14:18:28;100638.28;;;5.48;83.27
24154;BME280;12312;53.362;-1.518;2023-03-03T14:21:11;100636.44;;;5.52;82.61
24154;BME280;12312;53.362;-1.518;2023-03-03T14:23:50;100637.88;;;5.62;82.95
24154;BME280;12312;53.362;-1.518;2023-03-03T14:26:20;100631.88;;;5.57;83.37
24154;BME280;12312;53.362;-1.518;2023-03-03T14:28:47;100635.47;;;5.54;82.36
24154;BME280;12312;53.362;-1.518;2023-03-03T14:31:28;100634.66;;;5.53;83.55
24154;BME280;12312;53.362;-1.518;2023-03-03T14:36:34;100631.78;;;5.60;83.44
24154;BME280;12312;53.362;-1.518;2023-03-03T14:39:01;100625.41;;;5.67;83.06
24154;BME280;12312;53.362;-1.518;2023-03-03T14:41:39;100620.63;;;5.50;84.70
24154;BME280;12312;53.362;-1.518;2023-03-03T14:44:31;100628.03;;;5.67;87.72
24154;BME280;12312;53.362;-1.518;2023-03-03T14:49:35;100619.50;;;6.42;92.13
24154;BME280;12312;53.362;-1.518;2023-03-03T14:54:43;100614.59;;;5.75;86.19
24154;BME280;12312;53.362;-1.518;2023-03-03T14:57:42;100613.94;;;5.68;86.71
24154;BME280;12312;53.362;-1.518;2023-03-03T15:02:44;100608.28;;;5.80;87.87
24154;BME280;12312;53.362;-1.518;2023-03-03T15:05:31;100605.69;;;5.79;87.44
24154;BME280;12312;53.362;-1.518;2023-03-03T15:10:42;100606.91;;;5.67;87.48
24154;BME280;12312;53.362;-1.518;2023-03-03T15:18:24;100601.59;;;5.39;89.64
24154;BME280;12312;53.362;-1.518;2023-03-03T15:23:50;100595.66;;;5.61;88.92
24154;BME280;12312;53.362;-1.518;2023-03-03T15:26:52;100584.03;;;5.38;89.38
24154;BME280;12312;53.362;-1.518;2023-03-03T15:35:13;100593.09;;;5.30;88.25
24154;BME280;12312;53.362;-1.518;2023-03-03T15:42:54;100578.28;;;5.53;89.20
24154;BME280;12312;53.362;-1.518;2023-03-03T16:01:32;100579.28;;;5.51;87.64
24154;BME280;12312;53.362;-1.518;2023-03-03T16:04:08;100584.03;;;5.38;88.61
24154;BME280;12312;53.362;-1.518;2023-03-03T16:12:20;100582.31;;;5.37;86.90
24154;BME280;12312;53.362;-1.518;2023-03-03T16:20:20;100575.00;;;5.45;85.93
24154;BME280;12312;53.362;-1.518;2023-03-03T16:26:03;100583.03;;;5.42;84.86
24154;BME280;12312;53.362;-1.518;2023-03-03T16:31:35;100575.41;;;5.61;91.71
24154;BME280;12312;53.362;-1.518;2023-03-03T16:36:51;100583.97;;;5.69;88.17
24154;BME280;12312;53.362;-1.518;2023-03-03T16:42:02;100589.03;;;5.47;88.90
24154;BME280;12312;53.362;-1.518;2023-03-03T16:44:58;100586.69;;;5.38;89.14
24154;BME280;12312;53.362;-1.518;2023-03-03T16:52:52;100594.69;;;5.35;90.50
24154;BME280;12312;53.362;-1.518;2023-03-03T16:55:24;100594.03;;;5.27;90.11
24154;BME280;12312;53.362;-1.518;2023-03-03T16:58:07;100589.53;;;5.31;89.57
24154;BME280;12312;53.362;-1.518;2023-03-03T17:06:35;100599.88;;;5.38;88.65
24154;BME280;12312;53.362;-1.518;2023-03-03T17:17:46;100612.25;;;5.36;86.43
24154;BME280;12312;53.362;-1.518;2023-03-03T17:20:50;100607.94;;;5.34;87.20
24154;BME280;12312;53.362;-1.518;2023-03-03T17:28:51;100619.38;;;5.34;85.34
24154;BME280;12312;53.362;-1.518;2023-03-03T17:42:14;100618.75;;;5.25;88.49
24154;BME280;12312;53.362;-1.518;2023-03-03T17:47:31;100622.44;;;5.19;89.22
24154;BME280;12312;53.362;-1.518;2023-03-03T17:58:18;100625.09;;;5.19;93.03
24154;BME280;12312;53.362;-1.518;2023-03-03T18:09:23;100632.16;;;5.17;94.63
24154;BME280;12312;53.362;-1.518;2023-03-03T18:23:25;100644.09;;;5.30;91.98
24154;BME280;12312;53.362;-1.518;2023-03-03T18:25:56;100656.56;;;5.25;91.80
24154;BME280;12312;53.362;-1.518;2023-03-03T18:28:48;100656.84;;;5.16;92.45
24154;BME280;12312;53.362;-1.518;2023-03-03T18:31:25;100656.56;;;5.25;92.72
24154;BME280;12312;53.362;-1.518;2023-03-03T18:34:37;100653.28;;;5.17;92.91
24154;BME280;12312;53.362;-1.518;2023-03-03T18:37:47;100664.00;;;5.11;93.42
24154;BME280;12312;53.362;-1.518;2023-03-03T18:42:36;100661.84;;;5.25;92.02
24154;BME280;12312;53.362;-1.518;2023-03-03T18:56:02;100676.47;;;5.05;85.50
24154;BME280;12312;53.362;-1.518;2023-03-03T19:01:13;100680.91;;;5.03;86.96
24154;BME280;12312;53.362;-1.518;2023-03-03T19:04:11;100681.88;;;5.00;87.86
24154;BME280;12312;53.362;-1.518;2023-03-03T19:09:11;100694.69;;;5.14;86.59